Time;durP1;ratioP1;P1;durP2;ratioP2;P2;SDS_P1;SDS_P2;PMS_P1;PMS_P2;Temp;Humidity;BMP_temperature;BMP_pressure;BME280_temperature;BME280_humidity;BME280_pressure;Samples;Min_cycle;Max_cycle;Signal;HPM_P1;HPM_P2
2023/01/09 00:00:06;;;;;;;;;;;;;;;11.28;79.91;99784.84;5003557;28;19922;-84
2023/01/09 00:02:51;;;;;;;;;;;;;;;11.20;80.73;99764.00;5005047;28;19918;-84
2023/01/09 00:05:36;;;;;;;;;;;;;;;11.14;80.80;99756.09;5020912;28;19928;-84
2023/01/09 00:08:20;;;;;;;;;;;;;;;11.19;80.15;99751.53;4992462;28;20290;-82
2023/01/09 00:11:06;;;;;;;;;;;;;;;11.21;80.09;99752.00;5015607;28;19926;-82
2023/01/09 00:13:51;;;;;;;;;;;;;;;11.25;79.99;99745.53;5002532;28;19921;-82
2023/01/09 00:16:35;;;;;;;;;;;;;;;11.32;79.88;99728.63;5014554;28;20297;-82
2023/01/09 00:19:20;;;;;;;;;;;;;;;11.30;79.60;99712.63;4982925;28;19918;-81
2023/01/09 00:22:05;;;;;;;;;;;;;;;11.28;79.86;99714.91;4991616;28;19918;-82
2023/01/09 00:24:49;;;;;;;;;;;;;;;11.27;79.84;99715.25;5008443;28;19917;-82
2023/01/09 00:27:34;;;;;;;;;;;;;;;11.25;79.55;99709.34;5011971;28;19921;-82
2023/01/09 00:30:19;;;;;;;;;;;;;;;11.24;79.61;99696.88;4992606;28;19922;-82
2023/01/09 00:33:04;;;;;;;;;;;;;;;11.22;80.20;99691.00;4984545;28;19918;-82
2023/01/09 00:35:48;;;;;;;;;;;;;;;11.26;79.82;99672.84;4982602;28;19918;-82
2023/01/09 00:38:33;;;;;;;;;;;;;;;11.35;79.09;99670.78;4981969;28;19918;-80
2023/01/09 00:41:19;;;;;;;;;;;;;;;11.30;79.32;99666.38;4984031;28;19922;-82
2023/01/09 00:44:07;;;;;;;;;;;;;;;11.28;79.40;99659.66;4999375;28;19917;-81
2023/01/09 00:46:54;;;;;;;;;;;;;;;11.25;79.39;99649.50;5007359;28;19917;-82
2023/01/09 00:49:39;;;;;;;;;;;;;;;11.31;79.50;99654.34;5009093;28;19921;-81
2023/01/09 00:52:24;;;;;;;;;;;;;;;11.30;79.20;99658.19;5002872;28;19918;-82
2023/01/09 00:55:08;;;;;;;;;;;;;;;11.36;79.15;99661.47;5001105;28;19917;-82
2023/01/09 00:57:54;;;;;;;;;;;;;;;11.23;80.22;99674.31;5000951;28;19918;-82
2023/01/09 01:00:39;;;;;;;;;;;;;;;11.49;79.61;99677.41;4981988;28;19930;-82
2023/01/09 01:03:23;;;;;;;;;;;;;;;11.64;78.96;99675.88;4986783;28;19918;-82
2023/01/09 01:09:11;;;;;;;;;;;;;;;11.68;78.14;99665.88;5014340;28;19917;-83
2023/01/09 01:11:56;;;;;;;;;;;;;;;11.76;77.29;99667.69;5020456;28;19922;-83
2023/01/09 01:14:40;;;;;;;;;;;;;;;11.65;76.98;99673.94;5036159;28;19917;-83
2023/01/09 01:17:24;;;;;;;;;;;;;;;11.65;77.52;99669.28;5002281;28;19918;-83
2023/01/09 01:20:11;;;;;;;;;;;;;;;11.63;77.27;99670.78;5004417;28;19917;-83
2023/01/09 01:22:55;;;;;;;;;;;;;;;11.74;77.39;99672.66;5006617;28;19922;-82
2023/01/09 01:25:41;;;;;;;;;;;;;;;11.36;78.59;99677.81;5005354;28;19918;-82
2023/01/09 01:28:25;;;;;;;;;;;;;;;11.03;80.88;99681.50;5010202;28;19922;-81
2023/01/09 01:31:17;;;;;;;;;;;;;;;10.73;83.17;99672.84;4983527;28;19926;-81
2023/01/09 01:34:02;;;;;;;;;;;;;;;10.88;83.41;99674.06;4984108;28;19918;-81
2023/01/09 01:36:46;;;;;;;;;;;;;;;10.62;84.16;99660.03;4998911;28;19918;-81
2023/01/09 01:39:30;;;;;;;;;;;;;;;10.62;84.78;99665.47;5003059;28;20466;-81
2023/01/09 01:42:15;;;;;;;;;;;;;;;10.80;84.52;99669.53;5006649;28;19918;-81
2023/01/09 01:44:59;;;;;;;;;;;;;;;10.70;83.97;99670.81;5002426;28;19918;-81
2023/01/09 01:47:50;;;;;;;;;;;;;;;10.29;84.87;99677.25;5002836;28;19918;-81
2023/01/09 01:50:34;;;;;;;;;;;;;;;10.22;85.00;99671.59;5012608;28;20393;-81
2023/01/09 01:53:20;;;;;;;;;;;;;;;9.93;85.22;99674.44;5023039;28;20312;-81
2023/01/09 01:56:12;;;;;;;;;;;;;;;9.77;85.82;99668.88;5016864;28;19918;-81
2023/01/09 01:59:02;;;;;;;;;;;;;;;9.84;85.44;99669.13;5005257;28;19917;-80
2023/01/09 02:01:49;;;;;;;;;;;;;;;9.93;84.71;99663.59;5003335;28;19918;-80
2023/01/09 02:04:35;;;;;;;;;;;;;;;9.91;85.19;99665.84;5006561;28;19917;-81
2023/01/09 02:07:20;;;;;;;;;;;;;;;9.76;84.79;99666.47;5003851;28;19917;-81
2023/01/09 02:10:04;;;;;;;;;;;;;;;9.72;84.79;99665.56;5014299;28;19921;-81
2023/01/09 02:12:49;;;;;;;;;;;;;;;9.69;85.10;99656.19;5007966;28;20396;-81
2023/01/09 02:15:53;;;;;;;;;;;;;;;9.61;84.96;99650.81;5022928;28;19924;-81
2023/01/09 02:18:42;;;;;;;;;;;;;;;9.71;84.47;99653.13;5002679;28;19918;-81
2023/01/09 02:21:36;;;;;;;;;;;;;;;9.65;85.06;99655.25;5003377;28;19917;-80
2023/01/09 02:24:45;;;;;;;;;;;;;;;9.66;84.45;99659.56;5001670;28;19918;-80
2023/01/09 02:27:48;;;;;;;;;;;;;;;9.65;84.05;99657.19;5003532;28;19917;-80
2023/01/09 02:30:36;;;;;;;;;;;;;;;9.34;85.53;99661.16;5013721;28;19925;-81
2023/01/09 02:33:28;;;;;;;;;;;;;;;9.16;85.83;99648.84;5018729;28;19918;-80
2023/01/09 02:36:25;;;;;;;;;;;;;;;9.02;85.77;99642.91;5022076;28;20392;-80
2023/01/09 02:39:30;;;;;;;;;;;;;;;9.07;85.76;99639.19;5003814;28;20309;-82
2023/01/09 02:42:22;;;;;;;;;;;;;;;9.09;85.93;99637.75;5019106;28;20281;-81
2023/01/09 02:45:06;;;;;;;;;;;;;;;9.04;86.03;99637.16;5003140;28;19925;-81
2023/01/09 02:47:51;;;;;;;;;;;;;;;8.93;86.20;99628.63;5000389;28;19921;-81
2023/01/09 02:50:40;;;;;;;;;;;;;;;9.05;86.20;99611.59;5008987;28;19922;-83
2023/01/09 02:53:43;;;;;;;;;;;;;;;9.01;86.48;99617.69;5012411;28;19917;-82
2023/01/09 02:56:50;;;;;;;;;;;;;;;8.91;87.13;99620.00;5018141;28;19921;-82
2023/01/09 02:59:34;;;;;;;;;;;;;;;8.90;87.49;99613.78;5002249;28;19918;-82
2023/01/09 03:02:28;;;;;;;;;;;;;;;8.98;87.48;99620.28;4998603;28;19924;-82
2023/01/09 03:05:12;;;;;;;;;;;;;;;8.90;87.71;99618.41;5003658;28;20660;-82
2023/01/09 03:08:01;;;;;;;;;;;;;;;8.89;87.95;99622.25;5002133;28;19921;-82
2023/01/09 03:10:56;;;;;;;;;;;;;;;8.90;87.95;99618.41;4999825;28;19926;-82
2023/01/09 03:13:41;;;;;;;;;;;;;;;8.88;87.79;99615.25;5013704;28;19917;-82
2023/01/09 03:16:30;;;;;;;;;;;;;;;8.82;87.21;99617.38;5017624;28;19917;-82
2023/01/09 03:19:17;;;;;;;;;;;;;;;8.87;87.00;99619.09;5010093;28;20004;-82
2023/01/09 03:22:02;;;;;;;;;;;;;;;8.79;86.86;99619.94;4999367;28;19918;-82
2023/01/09 03:24:46;;;;;;;;;;;;;;;8.76;87.12;99629.53;4998945;28;20117;-82
2023/01/09 03:27:31;;;;;;;;;;;;;;;8.83;86.66;99629.81;4999080;28;19917;-82
2023/01/09 03:30:15;;;;;;;;;;;;;;;9.03;86.96;99628.22;4996682;28;19922;-82
2023/01/09 03:33:00;;;;;;;;;;;;;;;8.86;86.03;99628.34;5009050;28;19917;-82
2023/01/09 03:35:45;;;;;;;;;;;;;;;9.01;86.73;99620.41;5002615;28;19917;-82
2023/01/09 03:38:30;;;;;;;;;;;;;;;9.02;86.39;99632.06;5022517;28;20304;-82
2023/01/09 03:41:16;;;;;;;;;;;;;;;9.08;86.11;99622.59;5016541;28;19917;-82
2023/01/09 03:44:02;;;;;;;;;;;;;;;8.99;85.15;99609.09;5002666;28;19917;-83
2023/01/09 03:46:49;;;;;;;;;;;;;;;9.01;85.19;99612.28;5019617;28;19921;-82
2023/01/09 03:49:33;;;;;;;;;;;;;;;8.85;85.11;99610.47;5019194;28;20113;-83
2023/01/09 03:52:18;;;;;;;;;;;;;;;8.75;85.40;99600.84;5003887;28;19917;-82
2023/01/09 03:55:02;;;;;;;;;;;;;;;8.66;85.68;99600.09;4992772;28;19918;-82
2023/01/09 03:57:48;;;;;;;;;;;;;;;8.70;85.75;99592.91;4993671;28;19922;-83
2023/01/09 04:00:32;;;;;;;;;;;;;;;8.70;85.54;99592.09;4995435;28;19918;-82
2023/01/09 04:03:18;;;;;;;;;;;;;;;8.96;85.55;99584.56;4986434;28;19918;-82
2023/01/09 04:06:03;;;;;;;;;;;;;;;8.96;84.45;99588.06;4984444;28;19926;-82
2023/01/09 04:08:48;;;;;;;;;;;;;;;8.91;84.49;99582.84;4981990;28;19918;-82
2023/01/09 04:11:32;;;;;;;;;;;;;;;8.87;84.37;99576.50;4992768;28;19922;-82
2023/01/09 04:14:16;;;;;;;;;;;;;;;8.77;84.59;99587.75;5007840;28;19918;-82
2023/01/09 04:17:02;;;;;;;;;;;;;;;8.82;85.04;99589.47;4988829;28;19918;-82
2023/01/09 04:19:46;;;;;;;;;;;;;;;8.70;84.62;99582.06;4982859;28;19922;-82
2023/01/09 04:22:31;;;;;;;;;;;;;;;8.68;84.75;99567.28;4998459;28;19925;-82
2023/01/09 04:25:15;;;;;;;;;;;;;;;8.71;84.58;99553.84;5001224;28;19918;-82
2023/01/09 04:27:59;;;;;;;;;;;;;;;8.58;84.76;99563.81;4998355;28;19918;-82
2023/01/09 04:30:44;;;;;;;;;;;;;;;8.53;85.31;99563.22;5002151;28;19922;-82
2023/01/09 04:33:28;;;;;;;;;;;;;;;8.67;85.15;99555.63;4993333;28;19918;-82
2023/01/09 04:36:13;;;;;;;;;;;;;;;8.78;84.21;99553.31;4986115;28;19918;-82
2023/01/09 04:38:57;;;;;;;;;;;;;;;8.73;84.44;99550.81;4991564;28;19917;-82
2023/01/09 04:41:48;;;;;;;;;;;;;;;8.67;84.82;99568.38;4993424;28;20397;-82
2023/01/09 04:44:32;;;;;;;;;;;;;;;8.71;84.52;99564.69;4978023;28;19918;-82
2023/01/09 04:47:17;;;;;;;;;;;;;;;8.70;84.67;99559.59;4976902;28;19922;-82
2023/01/09 04:50:01;;;;;;;;;;;;;;;8.79;83.89;99546.75;4980689;28;19922;-81
2023/01/09 04:52:45;;;;;;;;;;;;;;;9.01;84.17;99541.78;4979928;28;19918;-82
2023/01/09 04:55:30;;;;;;;;;;;;;;;8.88;83.31;99544.78;4997676;28;19918;-81
2023/01/09 04:58:14;;;;;;;;;;;;;;;8.96;82.55;99544.69;5008298;28;19918;-82
2023/01/09 05:00:59;;;;;;;;;;;;;;;8.86;82.42;99536.19;4992644;28;20312;-82
2023/01/09 05:03:43;;;;;;;;;;;;;;;8.82;82.68;99537.97;5006373;28;20538;-82
2023/01/09 05:06:28;;;;;;;;;;;;;;;8.70;83.01;99543.31;4997641;28;19918;-81
2023/01/09 05:09:13;;;;;;;;;;;;;;;8.62;83.27;99549.63;4997985;28;19918;-82
2023/01/09 05:11:57;;;;;;;;;;;;;;;8.50;83.62;99550.31;5002190;28;19929;-82
2023/01/09 05:14:41;;;;;;;;;;;;;;;8.44;83.68;99546.22;5000274;28;19917;-82
2023/01/09 05:17:26;;;;;;;;;;;;;;;8.41;83.70;99555.81;5001355;28;20419;-81
2023/01/09 05:20:10;;;;;;;;;;;;;;;8.42;83.94;99551.19;4984962;28;19917;-81
2023/01/09 05:22:55;;;;;;;;;;;;;;;8.55;83.66;99548.22;4991812;28;20000;-81
2023/01/09 05:25:39;;;;;;;;;;;;;;;8.56;84.14;99549.81;4998447;28;19921;-81
2023/01/09 05:28:24;;;;;;;;;;;;;;;8.48;83.04;99563.44;4998707;28;19925;-81
2023/01/09 05:31:08;;;;;;;;;;;;;;;8.54;83.08;99560.16;4981863;28;20138;-81
2023/01/09 05:33:53;;;;;;;;;;;;;;;8.73;83.46;99567.06;4977967;28;19918;-81
2023/01/09 05:36:37;;;;;;;;;;;;;;;8.56;81.60;99566.06;4977536;28;19918;-81
2023/01/09 05:39:22;;;;;;;;;;;;;;;8.52;81.93;99570.56;4991406;28;19918;-80
2023/01/09 05:42:06;;;;;;;;;;;;;;;8.65;82.18;99559.78;5003564;28;19925;-80
2023/01/09 05:44:51;;;;;;;;;;;;;;;8.76;81.81;99548.22;4985659;28;19922;-81
2023/01/09 05:47:35;;;;;;;;;;;;;;;8.79;81.18;99546.75;4981404;28;20404;-81
2023/01/09 05:50:20;;;;;;;;;;;;;;;8.80;80.10;99548.34;4980730;28;20389;-81
2023/01/09 05:53:05;;;;;;;;;;;;;;;8.69;80.20;99564.19;5020011;28;20304;-81
2023/01/09 05:55:49;;;;;;;;;;;;;;;8.68;80.13;99564.56;4993004;28;19917;-81
2023/01/09 05:58:34;;;;;;;;;;;;;;;8.45;80.83;99566.78;5006675;28;20397;-81
2023/01/09 06:01:18;;;;;;;;;;;;;;;8.54;80.70;99578.34;5005235;28;19917;-80
2023/01/09 06:04:03;;;;;;;;;;;;;;;8.48;80.27;99569.59;5005856;28;19925;-80
2023/01/09 06:06:47;;;;;;;;;;;;;;;8.69;80.61;99569.63;4999945;28;20385;-80
2023/01/09 06:09:32;;;;;;;;;;;;;;;8.69;80.06;99577.75;4991096;28;19925;-80
2023/01/09 06:12:16;;;;;;;;;;;;;;;8.68;80.41;99573.47;4993926;28;19921;-80
2023/01/09 06:15:01;;;;;;;;;;;;;;;8.58;80.33;99569.22;5006388;28;19917;-80
2023/01/09 06:17:45;;;;;;;;;;;;;;;8.47;81.26;99561.84;5003221;28;19917;-81
2023/01/09 06:20:29;;;;;;;;;;;;;;;8.56;81.30;99568.78;4991262;28;19918;-81
2023/01/09 06:23:14;;;;;;;;;;;;;;;8.55;81.72;99574.50;4995361;28;19918;-81
2023/01/09 06:25:59;;;;;;;;;;;;;;;8.59;81.93;99570.00;5008859;28;19918;-81
2023/01/09 06:28:43;;;;;;;;;;;;;;;8.62;81.95;99569.38;4991705;28;19918;-81
2023/01/09 06:31:28;;;;;;;;;;;;;;;8.72;81.99;99579.03;4996626;28;19933;-82
2023/01/09 06:34:12;;;;;;;;;;;;;;;8.69;81.17;99582.38;4996376;28;19918;-81
2023/01/09 06:36:57;;;;;;;;;;;;;;;8.65;80.78;99592.28;4990584;28;19918;-81
2023/01/09 06:39:42;;;;;;;;;;;;;;;8.61;80.41;99589.47;4999024;28;19925;-81
2023/01/09 06:42:26;;;;;;;;;;;;;;;8.75;80.93;99586.47;4995425;28;19917;-81
2023/01/09 06:45:11;;;;;;;;;;;;;;;8.86;81.00;99576.84;4998575;28;19917;-81
2023/01/09 06:47:56;;;;;;;;;;;;;;;9.32;83.96;99564.94;4995283;28;19918;-81
2023/01/09 06:50:41;;;;;;;;;;;;;;;8.62;82.74;99568.59;4993598;28;19929;-82
2023/01/09 06:53:25;;;;;;;;;;;;;;;8.71;81.34;99566.59;5005897;28;19917;-83
2023/01/09 06:56:10;;;;;;;;;;;;;;;8.54;81.44;99552.03;5007199;28;19917;-83
2023/01/09 06:58:54;;;;;;;;;;;;;;;9.62;81.85;99552.78;5006267;28;19918;-83
2023/01/09 07:01:39;;;;;;;;;;;;;;;10.50;76.87;99548.63;5007794;28;19921;-82
2023/01/09 07:04:24;;;;;;;;;;;;;;;10.24;73.59;99555.22;5013165;28;19926;-84
2023/01/09 07:07:08;;;;;;;;;;;;;;;9.54;76.40;99550.19;5025490;28;19921;-85
2023/01/09 07:09:53;;;;;;;;;;;;;;;9.06;77.72;99548.13;5048056;28;19917;-85
2023/01/09 07:12:37;;;;;;;475.80;40.60;;;;;;;10.12;79.67;99543.53;5005393;28;20765;-79
2023/01/09 07:15:22;;;;;;;4.72;3.00;;;;;;;9.17;76.57;99546.56;4997549;28;20405;-80
2023/01/09 07:18:07;;;;;;;6.82;3.45;;;;;;;9.15;78.87;99552.31;4996530;28;20681;-83
2023/01/09 07:20:52;;;;;;;;;;;;;;;8.68;77.70;99556.44;4994317;28;20049;-80
2023/01/09 07:23:37;;;;;;;4.32;3.08;;;;;;;8.95;78.02;99561.28;4990868;28;19913;-83
2023/01/09 07:26:24;;;;;;;2.70;2.20;;;;;;;8.77;78.25;99562.56;5003970;28;20380;-84
2023/01/09 07:29:10;;;;;;;3.53;2.28;;;;;;;8.99;79.45;99549.44;5006551;28;20049;-82
2023/01/09 07:31:55;;;;;;;2.25;1.45;;;;;;;8.87;76.66;99543.19;4998555;28;20057;-84
2023/01/09 07:34:39;;;;;;;2.65;1.63;;;;;;;8.92;77.46;99537.56;5001587;28;20051;-82
2023/01/09 07:37:24;;;;;;;3.00;2.20;;;;;;;9.10;76.78;99525.41;4994114;28;20054;-83
2023/01/09 07:40:09;;;;;;;2.63;2.05;;;;;;;8.73;79.09;99527.22;4990531;28;20053;-83
2023/01/09 07:42:54;;;;;;;2.92;1.90;;;;;;;8.70;77.89;99527.84;4998354;28;20053;-80
2023/01/09 07:45:39;;;;;;;4.40;1.95;;;;;;;8.98;76.82;99522.69;4996342;28;20053;-84
2023/01/09 07:48:24;;;;;;;3.35;2.13;;;;;;;9.18;75.67;99515.63;5008377;28;20424;-81
2023/01/09 07:51:09;;;;;;;1.95;1.75;;;;;;;9.42;74.83;99519.19;5002469;28;20524;-78
2023/01/09 07:53:54;;;;;;;4.25;2.08;;;;;;;9.74;73.69;99524.88;4992022;28;20422;-80
2023/01/09 07:56:39;;;;;;;3.38;2.30;;;;;;;9.93;72.33;99525.09;5001527;28;20050;-80
2023/01/09 07:59:25;;;;;;;2.83;1.88;;;;;;;9.88;72.39;99528.03;4983121;28;20068;-80
2023/01/09 08:02:09;;;;;;;3.53;2.30;;;;;;;9.83;73.46;99528.25;4996109;28;20038;-80
2023/01/09 08:04:55;;;;;;;3.28;2.72;;;;;;;9.27;75.86;99511.69;5001680;28;20061;-79
2023/01/09 08:07:40;;;;;;;14.95;9.63;;;;;;;8.87;77.73;99521.50;4999968;28;20061;-80
2023/01/09 08:10:25;;;;;;;1.90;1.70;;;;;;;8.78;77.48;99523.50;5012593;28;20053;-81
2023/01/09 08:13:10;;;;;;;3.85;2.30;;;;;;;8.55;78.53;99531.16;5004018;28;20044;-79
2023/01/09 08:15:55;;;;;;;5.00;2.80;;;;;;;8.58;78.86;99525.88;4991663;28;20049;-79
2023/01/09 08:18:39;;;;;;;5.95;3.72;;;;;;;8.50;78.86;99534.88;4997038;28;20041;-79
2023/01/09 08:21:23;;;;;;;8.18;5.13;;;;;;;8.45;79.09;99543.19;4988806;28;20053;-79
2023/01/09 08:24:08;;;;;;;5.03;2.95;;;;;;;8.46;79.63;99544.78;5008073;28;20049;-78
2023/01/09 08:26:53;;;;;;;5.72;3.30;;;;;;;8.91;78.11;99549.53;5015319;28;20555;-78
2023/01/09 08:29:38;;;;;;;5.50;3.67;;;;;;;9.14;76.38;99542.63;4989987;28;20053;-78
2023/01/09 08:32:22;;;;;;;3.85;2.55;;;;;;;9.07;75.80;99542.38;4997631;28;20053;-78
2023/01/09 08:35:08;;;;;;;7.75;3.33;;;;;;;8.90;76.39;99527.03;5001247;28;20049;-79
2023/01/09 08:37:54;;;;;;;2.95;2.55;;;;;;;8.84;76.63;99519.44;5003577;28;20065;-80
2023/01/09 08:40:38;;;;;;;3.60;2.50;;;;;;;8.76;77.16;99512.19;5007093;28;20057;-80
2023/01/09 08:49:31;;;;;;;5.88;3.10;;;;;;;8.86;77.83;99520.72;5008260;28;20049;-80
2023/01/09 08:52:16;;;;;;;3.15;2.42;;;;;;;8.91;78.31;99527.84;5001618;28;20067;-79
2023/01/09 08:55:01;;;;;;;3.38;2.25;;;;;;;8.97;78.57;99516.47;5003120;28;20053;-80
2023/01/09 08:57:53;;;;;;;10.63;5.38;;;;;;;9.24;78.24;99517.78;5020391;28;20049;-80
2023/01/09 09:00:38;;;;;;;6.20;3.13;;;;;;;9.30;78.16;99518.34;5017241;28;20125;-80
2023/01/09 09:03:23;;;;;;;4.30;2.38;;;;;;;9.36;78.17;99512.38;5033944;28;20532;-79
2023/01/09 09:06:09;;;;;;;5.85;3.40;;;;;;;9.25;79.22;99524.78;5026435;28;20056;-79
2023/01/09 09:08:54;;;;;;;11.65;5.07;;;;;;;9.33;79.22;99523.91;4998372;28;20057;-80
2023/01/09 09:11:39;;;;;;;7.85;4.03;;;;;;;9.34;79.54;99511.16;5014111;28;20056;-77
2023/01/09 09:17:28;;;;;;;6.68;3.45;;;;;;;9.39;78.83;99521.78;5011886;28;20053;-80
2023/01/09 09:20:13;;;;;;;4.30;3.83;;;;;;;9.28;79.57;99526.03;4996259;28;20041;-79
2023/01/09 09:22:58;;;;;;;4.80;2.80;;;;;;;9.31;80.30;99523.44;4993035;28;20057;-80
2023/01/09 09:25:42;;;;;;;3.63;2.60;;;;;;;9.25;79.60;99523.97;4998260;28;20429;-79
2023/01/09 09:28:27;;;;;;;;;;;;;;;9.19;80.07;99520.72;5023195;28;20520;-79
2023/01/09 09:31:11;;;;;;;5.10;2.20;;;;;;;9.21;79.01;99521.16;5028567;28;19917;-78
2023/01/09 09:33:57;;;;;;;2.50;1.30;;;;;;;9.28;77.87;99529.56;5002863;28;20409;-78
2023/01/09 09:36:42;;;;;;;2.38;1.65;;;;;;;9.37;77.56;99527.53;5028388;28;20600;-78
2023/01/09 09:39:27;;;;;;;1.90;1.77;;;;;;;9.35;77.80;99524.34;5015557;28;20044;-79
2023/01/09 09:45:36;;;;;;;1.63;1.52;;;;;;;9.41;77.97;99517.59;4995437;28;20050;-79
2023/01/09 09:48:42;;;;;;;2.30;1.73;;;;;;;9.49;78.06;99520.56;5012569;28;20045;-78
2023/01/09 09:51:36;;;;;;;;;;;;;;;9.58;78.34;99529.38;5000705;28;20048;-79
2023/01/09 09:54:31;;;;;;;2.78;1.60;;;;;;;9.52;78.17;99531.50;5018885;28;19913;-78
2023/01/09 09:57:22;;;;;;;2.50;1.63;;;;;;;9.49;78.48;99526.78;5021683;28;20050;-78
2023/01/09 10:00:14;;;;;;;3.03;1.92;;;;;;;9.52;78.05;99530.72;5005237;28;20053;-79
2023/01/09 10:03:05;;;;;;;4.05;1.85;;;;;;;9.49;78.81;99523.25;5012645;28;20056;-78
2023/01/09 10:05:53;;;;;;;4.72;2.08;;;;;;;9.54;78.80;99525.75;5013935;28;20041;-79
2023/01/09 10:08:51;;;;;;;8.43;2.88;;;;;;;9.52;78.25;99522.56;5031690;28;20410;-78
2023/01/09 10:11:46;;;;;;;3.90;2.22;;;;;;;9.49;78.52;99525.97;5000598;28;20049;-80
2023/01/09 10:14:31;;;;;;;3.10;2.30;;;;;;;9.63;78.20;99510.16;5025832;28;20053;-79
2023/01/09 10:17:27;;;;;;;4.10;1.88;;;;;;;9.68;77.84;99502.59;5035577;28;20287;-80
2023/01/09 10:20:23;;;;;;;6.05;2.40;;;;;;;9.90;76.49;99492.41;5014475;28;20045;-79
2023/01/09 10:23:33;;;;;;;6.00;2.63;;;;;;;9.83;76.19;99493.78;5013803;28;20052;-81
2023/01/09 10:26:32;;;;;;;3.38;2.17;;;;;;;9.83;75.81;99485.63;5011261;28;20049;-81
2023/01/09 10:29:48;;;;;;;4.32;2.40;;;;;;;9.78;75.82;99494.00;5010729;28;20053;-79
2023/01/09 10:32:52;;;;;;;4.07;1.92;;;;;;;9.94;74.92;99494.09;5016648;28;20036;-80
2023/01/09 10:35:57;;;;;;;3.05;1.90;;;;;;;10.04;74.64;99482.78;5014419;28;20536;-80
2023/01/09 10:38:46;;;;;;;3.33;1.90;;;;;;;10.11;74.52;99493.84;4993661;28;20056;-80
2023/01/09 10:41:38;;;;;;;3.95;2.10;;;;;;;9.91;75.30;99496.69;5014014;28;20048;-80
2023/01/09 10:44:26;;;;;;;3.78;2.75;;;;;;;9.76;76.29;99512.53;5007961;28;20049;-80
2023/01/09 10:47:19;;;;;;;7.43;2.92;;;;;;;9.70;77.00;99521.25;5002159;28;20049;-80
2023/01/09 10:50:21;;;;;;;8.40;4.13;;;;;;;9.98;76.82;99526.78;5000800;28;20052;-80
2023/01/09 10:53:25;;;;;;;12.40;5.72;;;;;;;9.99;77.16;99534.59;5005559;28;20040;-79
2023/01/09 10:56:27;;;;;;;10.07;6.15;;;;;;;9.99;77.60;99529.19;5014552;28;20515;-79
2023/01/09 10:59:11;;;;;;;11.77;7.32;;;;;;;10.04;77.58;99526.22;5016530;28;20049;-79
2023/01/09 11:01:56;;;;;;;;;;;;;;;10.13;78.19;99524.19;5007303;28;20049;-82
2023/01/09 11:04:42;;;;;;;15.02;9.75;;;;;;;10.15;77.96;99513.78;5021931;28;20468;-81
2023/01/09 11:07:38;;;;;;;17.42;10.05;;;;;;;10.24;77.85;99513.69;4998653;28;20414;-81
2023/01/09 11:10:22;;;;;;;16.10;8.10;;;;;;;10.22;77.99;99510.50;5007606;28;20421;-81
2023/01/09 11:13:19;;;;;;;10.65;6.25;;;;;;;10.29;77.56;99508.81;5004297;28;20053;-84
2023/01/09 11:16:08;;;;;;;15.70;8.90;;;;;;;10.19;78.12;99514.72;4999510;28;20414;-81
2023/01/09 11:18:56;;;;;;;13.32;9.00;;;;;;;10.25;78.00;99515.28;5015577;28;20048;-81
2023/01/09 11:21:41;;;;;;;14.43;8.70;;;;;;;10.14;77.92;99509.47;5006592;28;20048;-80
2023/01/09 11:24:28;;;;;;;10.73;8.23;;;;;;;10.19;77.96;99508.47;4998199;28;20045;-78
2023/01/09 11:27:13;;;;;;;;;;;;;;;10.19;78.11;99512.00;5019278;28;20175;-79
2023/01/09 11:30:06;;;;;;;;;;;;;;;10.21;77.93;99498.84;5018628;28;19913;-79
2023/01/09 11:32:51;;;;;;;;;;;;;;;10.16;78.42;99496.34;5020338;28;19917;-79
2023/01/09 11:35:36;;;;;;;;;;;;;;;10.30;78.03;99490.56;5019419;28;19914;-79
2023/01/09 11:38:21;;;;;;;;;;;;;;;10.33;77.54;99489.09;5020831;28;19920;-78
2023/01/09 11:41:05;;;;;;;;;;;;;;;10.38;77.48;99480.69;5006248;28;19913;-79
2023/01/09 11:43:51;;;;;;;;;;;;;;;10.38;77.64;99475.25;5008077;28;19917;-79
2023/01/09 11:46:41;;;;;;;;;;;;;;;10.40;77.18;99473.78;5033004;28;19921;-77
2023/01/09 11:49:27;;;;;;;;;;;;;;;10.36;77.03;99462.03;4999165;28;19914;-79
2023/01/09 11:52:19;;;;;;;;;;;;;;;10.40;76.95;99454.78;4995661;28;19917;-79
2023/01/09 11:55:08;;;;;;;;;;;;;;;10.41;77.06;99464.50;5000670;28;19912;-79
2023/01/09 11:57:53;;;;;;;;;;;;;;;10.43;77.17;99458.72;5003023;28;19913;-78
2023/01/09 12:00:46;;;;;;;;;;;;;;;10.41;77.10;99444.69;5018579;28;19913;-79
2023/01/09 12:03:43;;;;;;;;;;;;;;;10.35;77.32;99446.06;4995013;28;20377;-78
2023/01/09 12:06:31;;;;;;;;;;;;;;;10.32;77.95;99444.03;5000998;28;19917;-78
2023/01/09 12:09:24;;;;;;;;;;;;;;;10.41;77.60;99436.53;5014999;28;19914;-79
2023/01/09 12:12:23;;;;;;;;;;;;;;;10.43;77.57;99439.69;5012933;28;20385;-79
2023/01/09 12:15:17;;;;;;;;;;;;;;;10.39;77.29;99442.31;5004422;28;19913;-79
2023/01/09 12:18:05;;;;;;;;;;;;;;;10.59;76.56;99437.81;5010206;28;20102;-79
2023/01/09 12:20:50;;;;;;;;;;;;;;;10.72;76.44;99425.75;5007540;28;19917;-79
2023/01/09 12:23:41;;;;;;;;;;;;;;;10.69;75.65;99427.25;4998772;28;20400;-79
2023/01/09 12:26:25;;;;;;;;;;;;;;;10.74;75.46;99420.75;5011092;28;20380;-79
2023/01/09 12:29:24;;;;;;;;;;;;;;;10.75;75.52;99424.28;4995650;28;20307;-79
2023/01/09 12:32:18;;;;;;;;;;;;;;;10.80;75.03;99427.53;5003944;28;19917;-79
2023/01/09 12:35:11;;;;;;;;;;;;;;;10.78;75.12;99418.91;4994782;28;19913;-79
2023/01/09 12:38:12;;;;;;;;;;;;;;;10.72;75.36;99412.16;5001010;28;19914;-80
2023/01/09 12:41:09;;;;;;;;;;;;;;;10.74;75.38;99412.59;5014906;28;19921;-80
2023/01/09 12:44:01;;;;;;;;;;;;;;;10.70;76.15;99409.81;5023363;28;19913;-80
2023/01/09 12:47:01;;;;;;;;;;;;;;;10.68;76.31;99406.63;5025898;28;19913;-80
2023/01/09 12:49:45;;;;;;;;;;;;;;;10.66;76.10;99392.59;5013420;28;19913;-80
2023/01/09 12:52:39;;;;;;;;;;;;;;;10.63;75.27;99387.06;5012548;28;19917;-80
2023/01/09 12:55:26;;;;;;;;;;;;;;;10.60;75.52;99390.47;5017243;28;19921;-80
2023/01/09 12:58:16;;;;;;;;;;;;;;;10.70;75.00;99384.53;5002539;28;19914;-81
2023/01/09 13:01:03;;;;;;;;;;;;;;;10.69;74.96;99375.59;5001930;28;19913;-80
2023/01/09 13:04:07;;;;;;;;;;;;;;;10.70;74.07;99363.59;5011583;28;19913;-80
2023/01/09 13:06:58;;;;;;;;;;;;;;;10.80;73.70;99345.16;5018910;28;19913;-81
2023/01/09 13:09:48;;;;;;;;;;;;;;;10.86;72.62;99349.22;5040085;28;19913;-80
2023/01/09 13:12:35;;;;;;;;;;;;;;;10.82;70.91;99342.91;5046562;28;19917;-80
2023/01/09 13:15:23;;;;;;;;;;;;;;;10.95;68.78;99333.50;5038393;28;20311;-80
2023/01/09 13:18:23;;;;;;;;;;;;;;;11.03;66.17;99327.88;5029759;28;19913;-80
2023/01/09 13:21:08;;;;;;;;;;;;;;;11.17;65.98;99318.50;5029313;28;19912;-79
2023/01/09 13:23:52;;;;;;;;;;;;;;;11.22;65.44;99319.00;5028088;28;19913;-79
2023/01/09 13:26:46;;;;;;;;;;;;;;;11.26;64.17;99314.44;5041027;28;19914;-80
2023/01/09 13:29:41;;;;;;;;;;;;;;;11.21;62.83;99306.53;5033081;28;19913;-80
2023/01/09 13:32:26;;;;;;;;;;;;;;;11.29;63.03;99291.16;5025910;28;19917;-79
2023/01/09 13:35:14;;;;;;;;;;;;;;;11.46;62.42;99293.50;5026946;28;20381;-80
2023/01/09 13:37:59;;;;;;;;;;;;;;;11.64;61.02;99289.22;5013231;28;19921;-80
2023/01/09 13:40:43;;;;;;;;;;;;;;;11.82;60.09;99293.13;5015343;28;19914;-79
2023/01/09 13:43:47;;;;;;;;;;;;;;;12.14;60.15;99290.25;5011557;28;19913;-80
2023/01/09 13:46:36;;;;;;;;;;;;;;;12.25;58.29;99289.31;5021081;28;19913;-79
2023/01/09 13:49:33;;;;;;;;;;;;;;;12.49;58.80;99288.19;5018553;28;19914;-80
2023/01/09 13:52:29;;;;;;;;;;;;;;;12.67;57.50;99294.75;5016752;28;19918;-79
2023/01/09 13:55:13;;;;;;;;;;;;;;;12.73;57.74;99303.41;5009202;28;19913;-80
2023/01/09 13:58:06;;;;;;;;;;;;;;;12.69;55.95;99297.91;5013052;28;20400;-80
2023/01/09 14:00:53;;;;;;;;;;;;;;;12.67;54.10;99293.94;5015985;28;19914;-84
2023/01/09 14:03:38;;;;;;;;;;;;;;;12.46;56.41;99304.47;5007768;28;19914;-80
2023/01/09 14:06:23;;;;;;;;;;;;;;;12.30;59.26;99312.75;5024152;28;20315;-80
2023/01/09 14:09:13;;;;;;;;;;;;;;;12.26;60.98;99320.06;5014550;28;20551;-80
2023/01/09 14:12:03;;;;;;;;;;;;;;;12.21;62.27;99317.63;5027878;28;20297;-79
2023/01/09 14:14:49;;;;;;;;;;;;;;;12.12;61.99;99317.06;5028188;28;19913;-79
2023/01/09 14:17:35;;;;;;;;;;;;;;;12.05;58.21;99319.66;5026119;28;19913;-79
2023/01/09 14:20:26;;;;;;;;;;;;;;;11.98;62.22;99339.38;5025248;28;19917;-80
2023/01/09 14:23:25;;;;;;;;;;;;;;;12.00;63.10;99329.69;5008222;28;19914;-80
2023/01/09 14:26:19;;;;;;;;;;;;;;;11.97;59.38;99316.78;5025837;28;19913;-80
2023/01/09 14:29:22;;;;;;;;;;;;;;;12.10;59.31;99328.31;5017574;28;19921;-80